sensor_id;sensor_type;location;lat;lon;timestamp;pressure;altitude;pressure_sealevel;temperature;humidity
62712;BME280;48772;55.586;37.730;2022-07-04T00:00:18;99155.44;;;23.08;40.85
62712;BME280;48772;55.586;37.730;2022-07-04T00:02:44;99158.56;;;23.05;41.50
62712;BME280;48772;55.586;37.730;2022-07-04T00:05:11;99133.69;;;22.95;41.08
62712;BME280;48772;55.586;37.730;2022-07-04T00:07:38;99139.13;;;22.95;40.62
62712;BME280;48772;55.586;37.730;2022-07-04T00:10:05;99135.78;;;22.93;40.37
62712;BME280;48772;55.586;37.730;2022-07-04T00:12:32;99152.72;;;23.01;40.12
62712;BME280;48772;55.586;37.730;2022-07-04T00:14:59;99155.03;;;22.98;40.93
62712;BME280;48772;55.586;37.730;2022-07-04T00:17:25;99151.69;;;22.96;40.92
62712;BME280;48772;55.586;37.730;2022-07-04T00:19:50;99152.09;;;22.93;40.07
62712;BME280;48772;55.586;37.730;2022-07-04T00:22:16;99149.19;;;22.88;41.21
62712;BME280;48772;55.586;37.730;2022-07-04T00:24:42;99144.19;;;22.85;41.60
62712;BME280;48772;55.586;37.730;2022-07-04T00:27:08;99146.72;;;22.80;42.00
62712;BME280;48772;55.586;37.730;2022-07-04T00:29:34;99133.78;;;22.69;41.01
62712;BME280;48772;55.586;37.730;2022-07-04T00:32:00;99151.72;;;22.76;41.34
62712;BME280;48772;55.586;37.730;2022-07-04T00:34:26;99144.25;;;22.59;41.59
62712;BME280;48772;55.586;37.730;2022-07-04T00:36:52;99156.78;;;22.60;42.59
62712;BME280;48772;55.586;37.730;2022-07-04T00:39:18;99154.72;;;22.55;42.67
62712;BME280;48772;55.586;37.730;2022-07-04T00:41:44;99149.06;;;22.57;42.69
62712;BME280;48772;55.586;37.730;2022-07-04T00:44:11;99147.59;;;22.54;42.67
62712;BME280;48772;55.586;37.730;2022-07-04T00:46:39;99148.44;;;22.55;41.90
62712;BME280;48772;55.586;37.730;2022-07-04T00:49:06;99156.59;;;22.55;42.10
62712;BME280;48772;55.586;37.730;2022-07-04T00:51:33;99142.81;;;22.50;41.63
62712;BME280;48772;55.586;37.730;2022-07-04T00:53:59;99141.28;;;22.47;41.51
62712;BME280;48772;55.586;37.730;2022-07-04T00:56:26;99156.41;;;22.50;41.90
62712;BME280;48772;55.586;37.730;2022-07-04T00:58:52;99162.84;;;22.48;41.30
62712;BME280;48772;55.586;37.730;2022-07-04T01:01:19;99168.09;;;22.50;42.16
62712;BME280;48772;55.586;37.730;2022-07-04T01:03:46;99122.50;;;22.13;41.82
62712;BME280;48772;55.586;37.730;2022-07-04T01:09:28;99158.47;;;22.34;42.50
62712;BME280;48772;55.586;37.730;2022-07-04T01:11:53;99165.34;;;22.30;42.31
62712;BME280;48772;55.586;37.730;2022-07-04T01:14:19;99168.06;;;22.30;42.04
62712;BME280;48772;55.586;37.730;2022-07-04T01:16:45;99173.50;;;22.30;42.40
62712;BME280;48772;55.586;37.730;2022-07-04T01:19:11;99175.19;;;22.31;42.20
62712;BME280;48772;55.586;37.730;2022-07-04T01:21:37;99173.50;;;22.30;42.63
62712;BME280;48772;55.586;37.730;2022-07-04T01:24:03;99160.31;;;22.21;42.66
62712;BME280;48772;55.586;37.730;2022-07-04T01:26:29;99163.03;;;22.21;42.96
62712;BME280;48772;55.586;37.730;2022-07-04T01:28:56;99182.69;;;22.29;43.23
62712;BME280;48772;55.586;37.730;2022-07-04T01:31:22;99179.34;;;22.34;42.64
62712;BME280;48772;55.586;37.730;2022-07-04T01:33:47;99180.22;;;22.34;42.78
62712;BME280;48772;55.586;37.730;2022-07-04T01:36:16;99176.00;;;22.32;42.61
62712;BME280;48772;55.586;37.730;2022-07-04T01:38:41;99166.81;;;22.20;42.79
62712;BME280;48772;55.586;37.730;2022-07-04T01:41:08;99179.38;;;22.27;42.67
62712;BME280;48772;55.586;37.730;2022-07-04T01:43:34;99169.31;;;22.21;42.68
62712;BME280;48772;55.586;37.730;2022-07-04T01:46:00;99178.09;;;22.30;42.83
62712;BME280;48772;55.586;37.730;2022-07-04T01:48:26;99165.75;;;22.21;42.96
62712;BME280;48772;55.586;37.730;2022-07-04T01:50:52;99173.94;;;22.27;43.12
62712;BME280;48772;55.586;37.730;2022-07-04T01:53:17;99185.22;;;22.31;43.06
62712;BME280;48772;55.586;37.730;2022-07-04T01:55:43;99182.69;;;22.29;43.07
62712;BME280;48772;55.586;37.730;2022-07-04T01:58:09;99174.75;;;22.21;43.40
62712;BME280;48772;55.586;37.730;2022-07-04T02:00:35;99179.97;;;22.29;43.88
62712;BME280;48772;55.586;37.730;2022-07-04T02:03:19;99188.56;;;22.39;43.13
62712;BME280;48772;55.586;37.730;2022-07-04T02:05:45;99186.25;;;22.36;42.99
62712;BME280;48772;55.586;37.730;2022-07-04T02:08:11;99195.25;;;22.50;43.32
62712;BME280;48772;55.586;37.730;2022-07-04T02:10:37;99187.09;;;22.50;43.43
62712;BME280;48772;55.586;37.730;2022-07-04T02:13:03;99194.44;;;22.50;43.26
62712;BME280;48772;55.586;37.730;2022-07-04T02:15:40;99190.66;;;22.57;43.63
62712;BME280;48772;55.586;37.730;2022-07-04T02:18:09;99191.09;;;22.61;43.52
62712;BME280;48772;55.586;37.730;2022-07-04T02:20:37;99191.31;;;22.59;43.21
62712;BME280;48772;55.586;37.730;2022-07-04T02:23:04;99197.78;;;22.65;43.65
62712;BME280;48772;55.586;37.730;2022-07-04T02:25:30;99199.44;;;22.66;43.79
62712;BME280;48772;55.586;37.730;2022-07-04T02:27:56;99205.06;;;22.71;43.75
62712;BME280;48772;55.586;37.730;2022-07-04T02:30:23;99188.97;;;22.63;44.01
62712;BME280;48772;55.586;37.730;2022-07-04T02:32:49;99201.50;;;22.77;43.60
62712;BME280;48772;55.586;37.730;2022-07-04T02:35:15;99205.66;;;22.86;43.67
62712;BME280;48772;55.586;37.730;2022-07-04T02:37:41;99204.84;;;22.92;43.42
62712;BME280;48772;55.586;37.730;2022-07-04T02:40:08;99194.38;;;22.95;43.70
62712;BME280;48772;55.586;37.730;2022-07-04T02:42:36;99200.00;;;23.00;43.96
62712;BME280;48772;55.586;37.730;2022-07-04T02:45:02;99200.81;;;23.07;43.43
62712;BME280;48772;55.586;37.730;2022-07-04T02:47:30;99179.50;;;22.98;43.30
62712;BME280;48772;55.586;37.730;2022-07-04T02:49:56;99204.59;;;23.13;43.75
62712;BME280;48772;55.586;37.730;2022-07-04T02:52:21;99206.47;;;23.19;43.82
62712;BME280;48772;55.586;37.730;2022-07-04T02:54:47;99197.88;;;23.22;43.61
62712;BME280;48772;55.586;37.730;2022-07-04T02:57:14;99190.34;;;23.24;43.63
62712;BME280;48772;55.586;37.730;2022-07-04T02:59:41;99198.03;;;23.40;44.04
62712;BME280;48772;55.586;37.730;2022-07-04T03:02:07;99178.78;;;23.35;43.96
62712;BME280;48772;55.586;37.730;2022-07-04T03:04:32;99192.56;;;23.40;43.92
62712;BME280;48772;55.586;37.730;2022-07-04T03:06:58;99201.31;;;23.55;43.95
62712;BME280;48772;55.586;37.730;2022-07-04T03:09:25;99199.22;;;23.57;44.59
62712;BME280;48772;55.586;37.730;2022-07-04T03:11:53;99193.59;;;23.52;44.32
62712;BME280;48772;55.586;37.730;2022-07-04T03:14:19;99198.34;;;23.63;43.82
62712;BME280;48772;55.586;37.730;2022-07-04T03:16:45;99200.00;;;23.64;43.58
62712;BME280;48772;55.586;37.730;2022-07-04T03:19:11;99211.50;;;23.72;43.69
62712;BME280;48772;55.586;37.730;2022-07-04T03:21:37;99204.72;;;23.81;43.90
62712;BME280;48772;55.586;37.730;2022-07-04T03:24:03;99207.03;;;23.84;44.59
62712;BME280;48772;55.586;37.730;2022-07-04T03:26:31;99206.56;;;23.94;43.51
62712;BME280;48772;55.586;37.730;2022-07-04T03:28:58;99199.25;;;23.94;43.18
62712;BME280;48772;55.586;37.730;2022-07-04T03:31:24;99215.75;;;23.99;43.91
62712;BME280;48772;55.586;37.730;2022-07-04T03:33:51;99190.88;;;23.96;43.89
62712;BME280;48772;55.586;37.730;2022-07-04T03:36:18;99206.84;;;24.17;43.70
62712;BME280;48772;55.586;37.730;2022-07-04T03:38:44;99201.34;;;24.23;43.60
62712;BME280;48772;55.586;37.730;2022-07-04T03:41:10;99186.88;;;24.23;43.77
62712;BME280;48772;55.586;37.730;2022-07-04T03:43:37;99203.75;;;24.38;43.65
62712;BME280;48772;55.586;37.730;2022-07-04T03:46:03;99203.31;;;24.41;43.05
62712;BME280;48772;55.586;37.730;2022-07-04T03:48:29;99207.19;;;24.51;43.19
62712;BME280;48772;55.586;37.730;2022-07-04T03:50:55;99209.88;;;24.58;43.36
62712;BME280;48772;55.586;37.730;2022-07-04T03:53:21;99195.47;;;24.51;43.57
62712;BME280;48772;55.586;37.730;2022-07-04T03:55:47;99205.69;;;24.62;43.45
62712;BME280;48772;55.586;37.730;2022-07-04T03:58:12;99210.66;;;24.65;43.48
62712;BME280;48772;55.586;37.730;2022-07-04T04:00:38;99204.94;;;24.73;43.85
62712;BME280;48772;55.586;37.730;2022-07-04T04:03:04;99197.22;;;24.70;43.94
62712;BME280;48772;55.586;37.730;2022-07-04T04:05:50;99180.00;;;24.69;43.40
62712;BME280;48772;55.586;37.730;2022-07-04T04:08:15;99203.53;;;25.06;43.47
62712;BME280;48772;55.586;37.730;2022-07-04T04:10:41;99222.50;;;25.19;43.45
62712;BME280;48772;55.586;37.730;2022-07-04T04:13:08;99210.94;;;25.24;42.56
62712;BME280;48772;55.586;37.730;2022-07-04T04:15:34;99221.63;;;25.43;42.27
62712;BME280;48772;55.586;37.730;2022-07-04T04:18:00;99215.13;;;25.45;42.88
62712;BME280;48772;55.586;37.730;2022-07-04T04:20:26;99214.34;;;25.56;42.53
62712;BME280;48772;55.586;37.730;2022-07-04T04:22:52;99222.78;;;25.54;42.55
62712;BME280;48772;55.586;37.730;2022-07-04T04:25:18;99224.13;;;25.45;42.69
62712;BME280;48772;55.586;37.730;2022-07-04T04:27:44;99226.19;;;25.50;42.63
62712;BME280;48772;55.586;37.730;2022-07-04T04:30:10;99230.56;;;25.69;42.97
62712;BME280;48772;55.586;37.730;2022-07-04T04:32:36;99218.50;;;25.76;42.92
62712;BME280;48772;55.586;37.730;2022-07-04T04:35:02;99223.00;;;25.82;42.10
62712;BME280;48772;55.586;37.730;2022-07-04T04:37:29;99216.88;;;25.87;41.65
62712;BME280;48772;55.586;37.730;2022-07-04T04:39:55;99227.97;;;25.92;42.10
62712;BME280;48772;55.586;37.730;2022-07-04T04:42:21;99236.97;;;25.92;42.15
62712;BME280;48772;55.586;37.730;2022-07-04T04:44:46;99224.47;;;26.03;42.15
62712;BME280;48772;55.586;37.730;2022-07-04T04:47:13;99220.56;;;26.10;41.54
62712;BME280;48772;55.586;37.730;2022-07-04T04:49:38;99221.16;;;26.12;41.81
62712;BME280;48772;55.586;37.730;2022-07-04T04:52:05;99226.16;;;26.15;41.59
62712;BME280;48772;55.586;37.730;2022-07-04T04:54:32;99232.03;;;26.30;41.44
62712;BME280;48772;55.586;37.730;2022-07-04T04:56:58;99235.69;;;26.24;41.48
62712;BME280;48772;55.586;37.730;2022-07-04T04:59:24;99232.50;;;26.39;41.61
62712;BME280;48772;55.586;37.730;2022-07-04T05:01:50;99231.25;;;26.41;41.42
62712;BME280;48772;55.586;37.730;2022-07-04T05:04:15;99220.19;;;26.48;41.39
62712;BME280;48772;55.586;37.730;2022-07-04T05:06:42;99220.53;;;26.51;41.50
62712;BME280;48772;55.586;37.730;2022-07-04T05:09:08;99220.34;;;26.64;41.22
62712;BME280;48772;55.586;37.730;2022-07-04T05:11:34;99229.66;;;26.63;41.73
62712;BME280;48772;55.586;37.730;2022-07-04T05:14:00;99220.13;;;26.66;41.60
62712;BME280;48772;55.586;37.730;2022-07-04T05:16:25;99219.75;;;26.62;40.95
62712;BME280;48772;55.586;37.730;2022-07-04T05:18:51;99199.66;;;26.68;40.91
62712;BME280;48772;55.586;37.730;2022-07-04T05:21:17;99214.28;;;26.97;40.40
62712;BME280;48772;55.586;37.730;2022-07-04T05:23:42;99227.50;;;27.11;40.64
62712;BME280;48772;55.586;37.730;2022-07-04T05:26:08;99224.78;;;27.11;40.21
62712;BME280;48772;55.586;37.730;2022-07-04T05:28:34;99191.31;;;27.09;40.20
62712;BME280;48772;55.586;37.730;2022-07-04T05:31:00;99206.78;;;27.38;39.77
62712;BME280;48772;55.586;37.730;2022-07-04T05:33:25;99212.25;;;27.38;39.45
62712;BME280;48772;55.586;37.730;2022-07-04T05:35:51;99228.44;;;27.51;39.37
62712;BME280;48772;55.586;37.730;2022-07-04T05:38:17;99208.56;;;27.44;39.16
62712;BME280;48772;55.586;37.730;2022-07-04T05:40:43;99222.28;;;27.72;39.04
62712;BME280;48772;55.586;37.730;2022-07-04T05:43:09;99209.91;;;27.70;38.23
62712;BME280;48772;55.586;37.730;2022-07-04T05:45:35;99213.94;;;27.79;38.42
62712;BME280;48772;55.586;37.730;2022-07-04T05:48:01;99220.00;;;27.81;37.53
62712;BME280;48772;55.586;37.730;2022-07-04T05:50:27;99224.84;;;28.02;37.69
62712;BME280;48772;55.586;37.730;2022-07-04T05:52:53;99207.91;;;28.05;37.49
62712;BME280;48772;55.586;37.730;2022-07-04T05:55:18;99218.88;;;28.05;37.31
62712;BME280;48772;55.586;37.730;2022-07-04T05:57:44;99220.63;;;28.27;37.17
62712;BME280;48772;55.586;37.730;2022-07-04T06:00:10;99217.28;;;28.37;36.83
62712;BME280;48772;55.586;37.730;2022-07-04T06:02:37;99221.84;;;28.32;36.40
62712;BME280;48772;55.586;37.730;2022-07-04T06:05:03;99210.00;;;28.43;37.20
62712;BME280;48772;55.586;37.730;2022-07-04T06:07:29;99223.13;;;28.57;36.73
62712;BME280;48772;55.586;37.730;2022-07-04T06:09:54;99216.31;;;28.60;36.46
62712;BME280;48772;55.586;37.730;2022-07-04T06:12:20;99216.78;;;28.57;35.89
62712;BME280;48772;55.586;37.730;2022-07-04T06:14:46;99208.97;;;28.49;35.17
62712;BME280;48772;55.586;37.730;2022-07-04T06:17:12;99224.22;;;28.56;35.59
62712;BME280;48772;55.586;37.730;2022-07-04T06:19:38;99218.47;;;28.58;34.67
62712;BME280;48772;55.586;37.730;2022-07-04T06:22:04;99209.91;;;28.71;35.17
62712;BME280;48772;55.586;37.730;2022-07-04T06:24:29;99220.13;;;28.92;33.75
62712;BME280;48772;55.586;37.730;2022-07-04T06:26:55;99220.13;;;28.92;34.21
62712;BME280;48772;55.586;37.730;2022-07-04T06:29:21;99196.66;;;28.84;33.97
62712;BME280;48772;55.586;37.730;2022-07-04T06:31:47;99209.16;;;29.08;34.05
62712;BME280;48772;55.586;37.730;2022-07-04T06:34:13;99225.28;;;29.05;33.05
62712;BME280;48772;55.586;37.730;2022-07-04T06:36:57;99222.13;;;29.13;33.47
62712;BME280;48772;55.586;37.730;2022-07-04T06:39:23;99201.66;;;29.04;33.22
62712;BME280;48772;55.586;37.730;2022-07-04T06:41:49;99224.59;;;29.31;33.42
62712;BME280;48772;55.586;37.730;2022-07-04T06:44:15;99221.47;;;29.44;33.58
62712;BME280;48772;55.586;37.730;2022-07-04T06:46:40;99213.66;;;29.57;33.20
62712;BME280;48772;55.586;37.730;2022-07-04T06:49:06;99215.09;;;29.81;32.49
62712;BME280;48772;55.586;37.730;2022-07-04T06:51:34;99217.63;;;29.88;32.75
62712;BME280;48772;55.586;37.730;2022-07-04T06:54:00;99213.13;;;29.77;32.97
62712;BME280;48772;55.586;37.730;2022-07-04T06:56:26;99218.53;;;29.93;32.74
62712;BME280;48772;55.586;37.730;2022-07-04T06:58:52;99205.72;;;29.77;32.09
62712;BME280;48772;55.586;37.730;2022-07-04T07:01:18;99218.22;;;29.90;32.35
62712;BME280;48772;55.586;37.730;2022-07-04T07:03:45;99220.66;;;29.65;32.71
62712;BME280;48772;55.586;37.730;2022-07-04T07:06:12;99184.19;;;29.10;33.48
62712;BME280;48772;55.586;37.730;2022-07-04T07:08:38;99197.28;;;29.24;33.22
62712;BME280;48772;55.586;37.730;2022-07-04T07:11:04;99207.19;;;29.63;33.10
62712;BME280;48772;55.586;37.730;2022-07-04T07:13:43;99195.19;;;29.96;32.76
62712;BME280;48772;55.586;37.730;2022-07-04T07:16:11;99207.75;;;30.13;33.25
62712;BME280;48772;55.586;37.730;2022-07-04T07:18:38;99197.00;;;30.12;32.43
62712;BME280;48772;55.586;37.730;2022-07-04T07:21:04;99193.31;;;30.23;31.98
62712;BME280;48772;55.586;37.730;2022-07-04T07:23:31;99200.09;;;30.42;31.95
62712;BME280;48772;55.586;37.730;2022-07-04T07:26:01;99202.97;;;30.57;31.40
62712;BME280;48772;55.586;37.730;2022-07-04T07:28:28;99199.34;;;30.83;31.78
62712;BME280;48772;55.586;37.730;2022-07-04T07:31:02;99199.06;;;30.79;31.49
62712;BME280;48772;55.586;37.730;2022-07-04T07:33:37;99199.16;;;30.94;30.83
62712;BME280;48772;55.586;37.730;2022-07-04T07:36:04;99214.41;;;31.07;30.92
62712;BME280;48772;55.586;37.730;2022-07-04T07:38:30;99199.59;;;31.18;30.49
62712;BME280;48772;55.586;37.730;2022-07-04T07:40:55;99192.75;;;31.26;30.71
62712;BME280;48772;55.586;37.730;2022-07-04T07:43:24;99192.88;;;31.51;30.56
62712;BME280;48772;55.586;37.730;2022-07-04T07:45:49;99198.66;;;31.44;31.06
62712;BME280;48772;55.586;37.730;2022-07-04T07:48:15;99193.81;;;30.78;30.74
62712;BME280;48772;55.586;37.730;2022-07-04T07:50:41;99200.25;;;30.30;31.88
62712;BME280;48772;55.586;37.730;2022-07-04T07:53:07;99192.56;;;30.32;31.07
62712;BME280;48772;55.586;37.730;2022-07-04T07:55:33;99191.25;;;30.13;32.30
62712;BME280;48772;55.586;37.730;2022-07-04T07:57:59;99205.22;;;30.65;31.27
62712;BME280;48772;55.586;37.730;2022-07-04T08:00:25;99196.06;;;30.86;30.94
62712;BME280;48772;55.586;37.730;2022-07-04T08:02:51;99207.41;;;31.31;29.99
62712;BME280;48772;55.586;37.730;2022-07-04T08:05:36;99197.53;;;31.40;29.76
62712;BME280;48772;55.586;37.730;2022-07-04T08:08:02;99208.38;;;31.67;28.98
62712;BME280;48772;55.586;37.730;2022-07-04T08:10:28;99199.88;;;31.73;27.83
62712;BME280;48772;55.586;37.730;2022-07-04T08:12:57;99176.75;;;31.79;27.55
62712;BME280;48772;55.586;37.730;2022-07-04T08:15:24;99203.06;;;31.40;27.87
62712;BME280;48772;55.586;37.730;2022-07-04T08:17:50;99203.13;;;31.08;28.27
62712;BME280;48772;55.586;37.730;2022-07-04T08:20:19;99206.50;;;31.21;28.57
62712;BME280;48772;55.586;37.730;2022-07-04T08:22:45;99198.88;;;31.33;28.60
62712;BME280;48772;55.586;37.730;2022-07-04T08:25:11;99199.59;;;31.18;28.67
62712;BME280;48772;55.586;37.730;2022-07-04T08:27:37;99205.81;;;31.40;28.92
62712;BME280;48772;55.586;37.730;2022-07-04T08:30:03;99197.16;;;31.78;27.96
62712;BME280;48772;55.586;37.730;2022-07-04T08:32:30;99187.28;;;31.97;27.47
62712;BME280;48772;55.586;37.730;2022-07-04T08:34:56;99193.22;;;31.64;28.09
62712;BME280;48772;55.586;37.730;2022-07-04T08:37:22;99195.13;;;31.07;28.39
62712;BME280;48772;55.586;37.730;2022-07-04T08:39:48;99206.50;;;30.84;28.82
62712;BME280;48772;55.586;37.730;2022-07-04T08:42:19;99197.00;;;31.43;28.37
62712;BME280;48772;55.586;37.730;2022-07-04T08:44:50;99188.34;;;31.81;27.04
62712;BME280;48772;55.586;37.730;2022-07-04T08:47:21;99194.03;;;32.31;26.38
62712;BME280;48772;55.586;37.730;2022-07-04T08:50:09;99194.31;;;32.45;25.49
62712;BME280;48772;55.586;37.730;2022-07-04T08:55:04;99193.19;;;32.81;26.47
62712;BME280;48772;55.586;37.730;2022-07-04T08:57:49;99176.34;;;32.77;25.27
62712;BME280;48772;55.586;37.730;2022-07-04T09:00:35;99175.22;;;33.03;25.97
62712;BME280;48772;55.586;37.730;2022-07-04T09:03:02;99175.78;;;32.80;25.33
62712;BME280;48772;55.586;37.730;2022-07-04T09:05:29;99176.38;;;32.87;26.06
62712;BME280;48772;55.586;37.730;2022-07-04T09:07:55;99160.63;;;32.83;25.60
62712;BME280;48772;55.586;37.730;2022-07-04T09:10:22;99187.34;;;33.27;25.67
62712;BME280;48772;55.586;37.730;2022-07-04T09:12:48;99181.19;;;33.50;24.30
62712;BME280;48772;55.586;37.730;2022-07-04T09:15:15;99178.06;;;33.72;23.81
62712;BME280;48772;55.586;37.730;2022-07-04T09:17:41;99174.75;;;33.70;23.35
62712;BME280;48772;55.586;37.730;2022-07-04T09:20:18;99180.50;;;33.83;23.67
62712;BME280;48772;55.586;37.730;2022-07-04T09:22:45;99167.25;;;33.86;23.97
62712;BME280;48772;55.586;37.730;2022-07-04T09:25:12;99171.03;;;33.95;23.35
62712;BME280;48772;55.586;37.730;2022-07-04T09:27:42;99157.19;;;34.00;23.32
62712;BME280;48772;55.586;37.730;2022-07-04T09:30:20;99183.31;;;34.27;23.07
62712;BME280;48772;55.586;37.730;2022-07-04T09:32:49;99179.25;;;34.10;23.57
62712;BME280;48772;55.586;37.730;2022-07-04T09:35:19;99176.47;;;34.15;23.46
62712;BME280;48772;55.586;37.730;2022-07-04T09:37:51;99171.09;;;34.33;23.04
62712;BME280;48772;55.586;37.730;2022-07-04T09:40:37;99157.50;;;34.37;23.19
62712;BME280;48772;55.586;37.730;2022-07-04T09:43:24;99170.75;;;34.40;22.14
62712;BME280;48772;55.586;37.730;2022-07-04T09:48:20;99125.91;;;34.38;22.91
62712;BME280;48772;55.586;37.730;2022-07-04T09:50:46;99137.81;;;34.00;24.37
62712;BME280;48772;55.586;37.730;2022-07-04T09:53:12;99157.16;;;33.51;24.18
62712;BME280;48772;55.586;37.730;2022-07-04T09:55:39;99155.06;;;32.73;25.39
62712;BME280;48772;55.586;37.730;2022-07-04T09:58:15;99157.03;;;32.87;25.26
62712;BME280;48772;55.586;37.730;2022-07-04T10:00:46;99152.28;;;32.98;25.04
62712;BME280;48772;55.586;37.730;2022-07-04T10:03:23;99159.50;;;33.77;23.92
62712;BME280;48772;55.586;37.730;2022-07-04T10:06:11;99140.53;;;34.05;23.80
62712;BME280;48772;55.586;37.730;2022-07-04T10:08:38;99145.47;;;34.13;23.31
62712;BME280;48772;55.586;37.730;2022-07-04T10:11:05;99140.97;;;34.22;23.59
62712;BME280;48772;55.586;37.730;2022-07-04T10:13:31;99139.75;;;33.40;24.54
62712;BME280;48772;55.586;37.730;2022-07-04T10:15:58;99134.59;;;33.14;25.00
62712;BME280;48772;55.586;37.730;2022-07-04T10:18:24;99139.03;;;32.95;25.28
62712;BME280;48772;55.586;37.730;2022-07-04T10:20:52;99101.22;;;32.85;25.55
62712;BME280;48772;55.586;37.730;2022-07-04T10:23:20;99132.41;;;32.76;25.89
62712;BME280;48772;55.586;37.730;2022-07-04T10:25:48;99131.00;;;33.08;25.65
62712;BME280;48772;55.586;37.730;2022-07-04T10:28:15;99123.16;;;33.45;24.82
62712;BME280;48772;55.586;37.730;2022-07-04T10:30:41;99131.00;;;33.77;23.85
62712;BME280;48772;55.586;37.730;2022-07-04T10:33:10;99135.13;;;34.23;23.31
62712;BME280;48772;55.586;37.730;2022-07-04T10:35:57;99131.28;;;34.58;22.83
62712;BME280;48772;55.586;37.730;2022-07-04T10:38:30;99129.13;;;34.83;23.75
62712;BME280;48772;55.586;37.730;2022-07-04T10:40:57;99114.97;;;34.85;23.76
62712;BME280;48772;55.586;37.730;2022-07-04T10:49:23;99119.19;;;35.06;23.28
62712;BME280;48772;55.586;37.730;2022-07-04T10:51:46;99118.09;;;34.73;23.32
62712;BME280;48772;55.586;37.730;2022-07-04T10:56:51;99116.94;;;33.68;24.07
62712;BME280;48772;55.586;37.730;2022-07-04T11:01:48;99116.97;;;33.58;23.81
62712;BME280;48772;55.586;37.730;2022-07-04T11:17:58;99107.16;;;34.25;24.06
62712;BME280;48772;55.586;37.730;2022-07-04T11:20:26;99089.69;;;34.29;22.81
62712;BME280;48772;55.586;37.730;2022-07-04T11:22:53;99083.72;;;34.12;22.82
62712;BME280;48772;55.586;37.730;2022-07-04T11:25:19;99092.75;;;34.61;22.83
62712;BME280;48772;55.586;37.730;2022-07-04T11:27:45;99103.34;;;34.83;22.65
62712;BME280;48772;55.586;37.730;2022-07-04T11:30:11;99078.53;;;34.68;23.05
62712;BME280;48772;55.586;37.730;2022-07-04T11:32:38;99083.50;;;34.71;22.46
62712;BME280;48772;55.586;37.730;2022-07-04T11:35:05;99081.25;;;34.44;22.62
62712;BME280;48772;55.586;37.730;2022-07-04T11:37:32;99084.16;;;34.63;23.75
62712;BME280;48772;55.586;37.730;2022-07-04T11:39:58;99086.16;;;34.52;23.00
62712;BME280;48772;55.586;37.730;2022-07-04T11:43:07;99089.84;;;34.09;23.94
62712;BME280;48772;55.586;37.730;2022-07-04T11:45:53;99084.88;;;34.45;23.53
62712;BME280;48772;55.586;37.730;2022-07-04T11:48:26;99079.03;;;34.46;22.84
62712;BME280;48772;55.586;37.730;2022-07-04T11:50:53;99085.09;;;34.77;23.22
62712;BME280;48772;55.586;37.730;2022-07-04T11:53:20;99064.72;;;34.91;22.45
62712;BME280;48772;55.586;37.730;2022-07-04T11:55:57;99066.25;;;35.02;22.08
62712;BME280;48772;55.586;37.730;2022-07-04T11:58:42;99074.97;;;35.14;22.46
62712;BME280;48772;55.586;37.730;2022-07-04T12:01:08;99064.78;;;35.10;21.65
62712;BME280;48772;55.586;37.730;2022-07-04T12:03:35;99072.97;;;35.20;21.72
62712;BME280;48772;55.586;37.730;2022-07-04T12:06:02;99062.41;;;35.22;21.60
62712;BME280;48772;55.586;37.730;2022-07-04T12:08:28;99054.88;;;35.04;21.22
62712;BME280;48772;55.586;37.730;2022-07-04T12:10:54;99030.63;;;34.91;21.76
62712;BME280;48772;55.586;37.730;2022-07-04T12:13:20;99067.00;;;34.89;22.12
62712;BME280;48772;55.586;37.730;2022-07-04T12:15:48;99058.25;;;35.01;22.20
62712;BME280;48772;55.586;37.730;2022-07-04T12:18:22;99058.03;;;34.97;22.17
62712;BME280;48772;55.586;37.730;2022-07-04T12:20:51;99065.38;;;34.83;22.43
62712;BME280;48772;55.586;37.730;2022-07-04T12:23:22;99045.59;;;35.13;21.86
62712;BME280;48772;55.586;37.730;2022-07-04T12:25:49;99041.66;;;35.19;21.76
62712;BME280;48772;55.586;37.730;2022-07-04T12:28:17;99063.13;;;35.32;21.60
62712;BME280;48772;55.586;37.730;2022-07-04T12:30:57;99040.75;;;35.24;21.18
62712;BME280;48772;55.586;37.730;2022-07-04T12:33:25;99040.06;;;35.13;21.51
62712;BME280;48772;55.586;37.730;2022-07-04T12:35:55;99036.56;;;35.26;21.63
62712;BME280;48772;55.586;37.730;2022-07-04T12:38:41;99030.97;;;34.89;21.77
62712;BME280;48772;55.586;37.730;2022-07-04T12:41:12;99041.03;;;34.52;22.07
62712;BME280;48772;55.586;37.730;2022-07-04T12:48:34;99037.06;;;34.58;22.06
62712;BME280;48772;55.586;37.730;2022-07-04T12:51:14;99041.69;;;34.44;22.33
62712;BME280;48772;55.586;37.730;2022-07-04T12:53:42;99045.75;;;34.51;22.68
62712;BME280;48772;55.586;37.730;2022-07-04T12:56:09;99037.56;;;34.08;23.13
62712;BME280;48772;55.586;37.730;2022-07-04T12:58:36;99042.97;;;34.18;22.81
62712;BME280;48772;55.586;37.730;2022-07-04T13:01:03;99044.25;;;34.30;23.06
62712;BME280;48772;55.586;37.730;2022-07-04T13:03:28;99033.47;;;34.34;22.80
62712;BME280;48772;55.586;37.730;2022-07-04T13:05:54;99023.84;;;34.55;22.39
62712;BME280;48772;55.586;37.730;2022-07-04T13:08:23;99022.16;;;34.54;22.12
62712;BME280;48772;55.586;37.730;2022-07-04T13:10:48;99028.00;;;34.76;22.29
62712;BME280;48772;55.586;37.730;2022-07-04T13:13:34;99021.50;;;34.90;21.98
62712;BME280;48772;55.586;37.730;2022-07-04T13:16:03;99023.53;;;34.85;22.22
62712;BME280;48772;55.586;37.730;2022-07-04T13:18:37;99020.34;;;34.68;22.36
62712;BME280;48772;55.586;37.730;2022-07-04T13:21:05;99020.34;;;34.68;22.50
62712;BME280;48772;55.586;37.730;2022-07-04T13:23:31;99017.59;;;34.68;22.59
62712;BME280;48772;55.586;37.730;2022-07-04T13:25:56;99021.47;;;34.67;22.66
62712;BME280;48772;55.586;37.730;2022-07-04T13:28:22;99009.56;;;34.66;22.21
62712;BME280;48772;55.586;37.730;2022-07-04T13:30:48;99003.63;;;34.54;22.29